Time;durP1;ratioP1;P1;durP2;ratioP2;P2;SDS_P1;SDS_P2;PMS_P1;PMS_P2;Temp;Humidity;BMP_temperature;BMP_pressure;BME280_temperature;BME280_humidity;BME280_pressure;Samples;Min_cycle;Max_cycle;Signal;HPM_P1;HPM_P2
2022/09/19 00:01:56;;;;;;;1.00;1.00;;;11.20;99.90;11.10;101731.00;;;;5075406;28;20201;-72
2022/09/19 00:04:30;;;;;;;0.80;0.80;;;11.00;99.90;11.10;101740.00;;;;5091013;28;20648;-72
2022/09/19 00:06:59;;;;;;;0.90;0.90;;;10.90;99.90;11.70;101753.00;;;;5091480;28;20537;-72
2022/09/19 00:09:30;;;;;;;0.83;0.83;;;11.10;99.90;12.30;101703.00;;;;5091190;28;20181;-72
2022/09/19 00:11:56;;;;;;;1.10;1.10;;;11.50;99.90;12.40;101742.00;;;;5075756;28;20204;-72
2022/09/19 00:14:30;;;;;;;1.10;1.10;;;11.60;99.90;12.50;101735.00;;;;5091046;28;20238;-72
2022/09/19 00:17:00;;;;;;;1.10;1.10;;;11.80;99.90;12.40;101739.00;;;;5091289;28;20194;-72
2022/09/19 00:19:29;;;;;;;0.90;0.90;;;11.70;99.90;12.70;101743.00;;;;5075474;28;20551;-72
2022/09/19 00:22:00;;;;;;;1.00;1.00;;;11.90;99.90;12.90;101744.00;;;;5091454;28;20185;-72
2022/09/19 00:24:45;;;;;;;1.80;1.17;;;12.10;99.90;13.00;101682.00;;;;5090768;28;20540;-72
2022/09/19 00:27:18;;;;;;;0.80;0.80;;;12.10;99.90;12.80;101739.00;;;;5088892;28;20252;-72
2022/09/19 00:29:44;;;;;;;0.90;0.90;;;12.10;99.90;12.90;101750.00;;;;5090909;28;20181;-71
2022/09/19 00:32:14;;;;;;;1.00;1.00;;;12.20;99.90;13.10;101741.00;;;;5074705;28;20227;-72
2022/09/19 00:34:46;;;;;;;0.90;0.90;;;12.30;99.90;12.80;101747.00;;;;5090300;28;20232;-72
2022/09/19 00:37:12;;;;;;;0.90;0.90;;;12.30;99.90;12.90;101742.00;;;;5090579;28;20188;-72
2022/09/19 00:39:39;;;;;;;1.00;1.00;;;12.30;99.90;13.10;101748.00;;;;5074224;28;20242;-72
2022/09/19 00:42:05;;;;;;;0.90;0.90;;;12.40;99.90;13.20;101756.00;;;;5091068;28;20180;-72
2022/09/19 00:44:33;;;;;;;0.90;0.90;;;12.50;99.90;13.60;101758.00;;;;5073913;28;20180;-72
2022/09/19 00:47:12;;;;;;;0.87;0.87;;;12.70;99.90;13.50;101761.00;;;;5090311;28;20193;-72
2022/09/19 00:49:44;;;;;;;0.80;0.80;;;12.70;99.90;12.70;101709.00;;;;5090544;28;20180;-71
2022/09/19 00:52:33;;;;;;;0.70;0.70;;;12.40;99.90;12.10;101747.00;;;;5090273;28;20671;-72
2022/09/19 00:55:00;;;;;;;0.60;0.60;;;11.90;99.90;12.00;101754.00;;;;5089408;28;20178;-72
2022/09/19 00:57:39;;;;;;;0.60;0.60;;;11.70;99.90;11.70;101756.00;;;;5090491;28;20166;-72
2022/09/19 01:00:07;;;;;;;0.70;0.70;;;11.50;99.90;11.90;101756.00;;;;5090041;28;20177;-73
2022/09/19 01:02:36;;;;;;;0.70;0.70;;;11.50;99.90;12.50;101761.00;;;;5090170;28;20578;-72
2022/09/19 01:05:07;;;;;;;0.70;0.70;;;11.80;99.90;12.20;101761.00;;;;5090522;28;20185;-72
2022/09/19 01:08:09;;;;;;;0.70;0.70;;;11.80;99.90;12.00;101759.00;;;;5074276;28;20207;-72
2022/09/19 01:10:50;;;;;;;0.70;0.70;;;11.60;99.90;11.80;101755.00;;;;5072294;28;20196;-72
2022/09/19 01:13:33;;;;;;;0.60;0.60;;;11.50;99.90;11.80;101766.00;;;;5074570;28;20281;-71
2022/09/19 01:16:10;;;;;;;0.70;0.70;;;11.50;99.90;11.60;101765.00;;;;5089395;28;20632;-72
2022/09/19 01:19:09;;;;;;;0.70;0.70;;;11.40;99.90;11.30;101753.00;;;;5074284;28;20306;-72
2022/09/19 01:22:22;;;;;;;0.67;0.67;;;11.20;99.90;11.20;101771.00;;;;5089978;28;20248;-72
2022/09/19 01:24:58;;;;;;;0.60;0.60;;;11.10;99.90;11.20;101717.00;;;;5089921;28;20182;-72
2022/09/19 01:27:24;;;;;;;5.80;1.00;;;11.00;99.90;11.70;101766.00;;;;5089488;28;20173;-72
2022/09/19 01:30:11;;;;;;;0.70;0.70;;;11.20;99.90;11.70;101770.00;;;;5089555;28;20187;-72
2022/09/19 01:32:51;;;;;;;0.70;0.70;;;11.30;99.90;12.20;101769.00;;;;5089325;28;20213;-72
2022/09/19 01:35:31;;;;;;;0.90;0.90;;;11.50;99.90;12.20;101768.00;;;;5089493;28;20297;-71
2022/09/19 01:38:05;;;;;;;0.60;0.60;;;11.50;99.90;11.60;101775.00;;;;5089301;28;20168;-72
2022/09/19 01:40:37;;;;;;;1.00;1.00;;;11.30;99.90;11.40;101773.00;;;;5089433;28;20177;-72
2022/09/19 01:43:06;;;;;;;0.70;0.70;;;11.20;99.90;11.60;101766.00;;;;5089314;28;20177;-71
2022/09/19 01:45:38;;;;;;;0.80;0.80;;;11.10;99.90;11.20;101773.00;;;;5089089;28;20228;-72
2022/09/19 01:48:42;;;;;;;0.73;0.73;;;11.00;99.90;11.20;101772.00;;;;5089359;28;20187;-72
2022/09/19 01:51:28;;;;;;;0.70;0.70;;;11.10;99.90;11.00;101767.00;;;;5073709;28;20177;-72
2022/09/19 01:54:15;;;;;;;0.80;0.80;;;10.90;99.90;10.80;101765.00;;;;5089594;28;20534;-72
2022/09/19 01:57:05;;;;;;;0.70;0.70;;;10.70;99.90;11.20;101764.00;;;;5089290;28;20545;-71
2022/09/19 01:59:51;;;;;;;0.70;0.70;;;10.70;99.90;10.90;101772.00;;;;5073300;28;20276;-72
2022/09/19 02:02:46;;;;;;;0.70;0.70;;;10.80;99.90;11.60;101730.00;;;;5089199;28;20199;-72
2022/09/19 02:05:53;;;;;;;0.80;0.80;;;10.90;99.90;11.80;101773.00;;;;5073707;28;20176;-72
2022/09/19 02:08:32;;;;;;;0.77;0.77;;;11.20;99.90;11.20;101773.00;;;;5056940;28;20637;-70
2022/09/19 02:11:09;;;;;;;0.70;0.70;;;11.00;99.90;11.20;101761.00;;;;5088963;28;20176;-72
2022/09/19 02:13:38;;;;;;;0.90;0.90;;;10.90;99.90;11.50;101773.00;;;;5088549;28;20177;-72
2022/09/19 02:16:34;;;;;;;0.70;0.70;;;11.10;99.90;11.40;101770.00;;;;5089077;28;20696;-72
2022/09/19 02:19:44;;;;;;;0.73;0.73;;;11.20;99.90;11.90;101769.00;;;;5088884;28;20180;-72
2022/09/19 02:22:24;;;;;;;0.80;0.80;;;11.10;99.90;12.20;101774.00;;;;5034084;28;20194;-72
2022/09/19 02:24:58;;;;;;;0.80;0.80;;;11.50;99.90;12.30;101745.00;;;;5034454;28;20220;-72
2022/09/19 02:27:41;;;;;;;0.90;0.90;;;11.60;99.90;12.10;101774.00;;;;5057405;28;20196;-72
2022/09/19 02:30:13;;;;;;;0.80;0.80;;;11.60;99.90;12.50;101775.00;;;;5089016;28;20678;-72
2022/09/19 02:32:47;;;;;;;0.97;0.97;;;11.70;99.90;12.20;101778.00;;;;5088597;28;20245;-72
2022/09/19 02:35:32;;;;;;;1.47;1.40;;;11.60;99.90;12.30;101774.00;;;;5088708;28;20180;-72
2022/09/19 02:38:37;;;;;;;0.97;0.97;;;11.70;99.90;12.40;101785.00;;;;5087552;28;20179;-72
2022/09/19 02:41:21;;;;;;;1.00;1.00;;;11.80;99.90;12.40;101785.00;;;;5064655;28;20252;-72
2022/09/19 02:44:35;;;;;;;1.00;1.00;;;11.70;99.90;11.90;101776.00;;;;5088711;28;20643;-71
2022/09/19 02:47:16;;;;;;;1.10;1.10;;;11.50;99.90;12.60;101775.00;;;;5088442;28;20173;-72
2022/09/19 02:49:53;;;;;;;1.00;1.00;;;11.80;99.90;12.50;101737.00;;;;5071719;28;20189;-72
2022/09/19 02:52:29;;;;;;;1.00;1.00;;;11.70;99.90;12.40;101776.00;;;;5088626;28;20201;-72
2022/09/19 02:55:05;;;;;;;1.10;1.10;;;11.70;99.90;12.50;101762.00;;;;5088382;28;20187;-72
2022/09/19 02:57:44;;;;;;;1.13;1.13;;;11.60;99.90;12.50;101773.00;;;;5088361;28;20177;-72
2022/09/19 03:00:16;;;;;;;1.00;1.00;;;11.60;99.90;11.70;101770.00;;;;5088226;28;20242;-72
2022/09/19 03:04:11;;;;;;;0.80;0.80;;;11.50;99.90;12.10;101772.00;;;;5071599;28;20195;-72
2022/09/19 03:05:53;;;;;;;3.80;1.63;;;11.50;99.90;12.10;101777.00;;;;5085735;28;20191;-71
2022/09/19 03:08:24;;;;;;;0.70;0.70;;;11.60;99.90;11.30;101774.00;;;;5088318;28;20173;-72
2022/09/19 03:10:58;;;;;;;0.80;0.80;;;11.20;99.90;11.70;101772.00;;;;5088121;28;20638;-72
2022/09/19 03:13:27;;;;;;;0.70;0.70;;;11.20;99.90;11.30;101781.00;;;;5088150;28;20206;-71
2022/09/19 03:16:02;;;;;;;4.53;1.03;;;11.10;99.90;11.50;101786.00;;;;5088663;28;20177;-72
2022/09/19 03:18:34;;;;;;;1.00;1.00;;;11.10;99.90;11.70;101790.00;;;;5088960;28;20203;-71
2022/09/19 03:21:07;;;;;;;0.70;0.70;;;11.10;99.90;11.40;101732.00;;;;5075468;28;20188;-72
2022/09/19 03:23:56;;;;;;;0.80;0.80;;;11.10;99.90;11.30;101781.00;;;;5091555;28;20641;-72
2022/09/19 03:26:27;;;;;;;0.73;0.73;;;11.10;99.90;11.40;101772.00;;;;5075072;28;20644;-72
2022/09/19 03:28:58;;;;;;;0.70;0.70;;;11.00;99.90;11.70;101783.00;;;;5091696;28;20705;-72
2022/09/19 03:31:25;;;;;;;0.70;0.70;;;11.10;99.90;12.30;101776.00;;;;5091792;28;20558;-72
2022/09/19 03:33:52;;;;;;;0.70;0.70;;;11.40;99.90;12.00;101775.00;;;;5091716;28;20177;-72
2022/09/19 03:36:24;;;;;;;0.80;0.80;;;11.40;99.90;12.30;101782.00;;;;5092278;28;20189;-72
2022/09/19 03:38:59;;;;;;;0.80;0.80;;;11.60;99.90;12.50;101734.00;;;;5091406;28;20673;-71
2022/09/19 03:41:24;;;;;;;1.10;1.10;;;11.70;99.90;12.40;101779.00;;;;5091669;28;20201;-72
2022/09/19 03:43:59;;;;;;;0.90;0.90;;;11.70;99.90;12.70;101784.00;;;;5076162;28;20642;-71
2022/09/19 03:46:32;;;;;;;0.80;0.80;;;11.90;99.90;12.50;101783.00;;;;5076007;28;20182;-70
2022/09/19 03:49:00;;;;;;;0.70;0.70;;;11.80;99.90;12.30;101783.00;;;;5091302;28;20173;-72
2022/09/19 03:51:33;;;;;;;0.80;0.80;;;11.80;99.90;12.30;101780.00;;;;5074924;28;20189;-70
2022/09/19 03:54:03;;;;;;;0.80;0.80;;;11.70;99.90;12.30;101792.00;;;;5091103;28;20542;-72
2022/09/19 03:56:32;;;;;;;0.93;0.93;;;11.70;99.90;12.60;101790.00;;;;5074782;28;20182;-72
2022/09/19 03:58:58;;;;;;;0.80;0.80;;;11.70;99.90;12.10;101742.00;;;;5075978;28;20173;-72
2022/09/19 04:01:24;;;;;;;0.80;0.80;;;11.50;99.90;11.80;101794.00;;;;5091178;28;20348;-71
2022/09/19 04:03:50;;;;;;;0.83;0.83;;;11.30;99.90;11.60;101796.00;;;;5091324;28;20179;-72
2022/09/19 04:06:17;;;;;;;0.80;0.80;;;11.10;99.90;12.00;101804.00;;;;5075704;28;20648;-72
2022/09/19 04:08:43;;;;;;;0.70;0.70;;;11.10;99.90;11.80;101803.00;;;;5091249;28;20217;-72
2022/09/19 04:11:11;;;;;;;0.90;0.90;;;11.00;99.90;12.20;101799.00;;;;5075688;28;20185;-72
2022/09/19 04:13:39;;;;;;;0.70;0.70;;;11.30;99.90;12.40;101802.00;;;;5091083;28;20536;-71
2022/09/19 04:16:06;;;;;;;0.80;0.80;;;11.50;99.90;11.90;101789.00;;;;5091022;28;20324;-72
2022/09/19 04:18:34;;;;;;;1.07;1.07;;;11.30;99.90;12.10;101802.00;;;;5074520;28;20180;-71
2022/09/19 04:21:05;;;;;;;1.90;1.83;;;11.30;99.90;12.40;101810.00;;;;5090803;28;20590;-72
2022/09/19 04:23:36;;;;;;;0.90;0.90;;;11.50;99.90;12.40;101802.00;;;;5090827;28;20187;-71
2022/09/19 04:26:04;;;;;;;0.80;0.80;;;11.60;99.90;11.90;101800.00;;;;5090878;28;20647;-71
2022/09/19 04:28:35;;;;;;;0.80;0.80;;;11.40;99.90;12.10;101811.00;;;;5075314;28;20652;-71
2022/09/19 04:31:01;;;;;;;0.90;0.90;;;11.40;99.90;12.50;101767.00;;;;5074979;28;20175;-71
2022/09/19 04:33:32;;;;;;;0.90;0.90;;;11.60;99.90;12.30;101804.00;;;;5075272;28;20530;-72
2022/09/19 04:35:59;;;;;;;1.07;1.07;;;11.60;99.90;12.60;101806.00;;;;5073974;28;20216;-71
2022/09/19 04:38:30;;;;;;;0.90;0.90;;;11.70;99.90;12.30;101805.00;;;;5090648;28;20183;-71
2022/09/19 04:40:56;;;;;;;0.83;0.83;;;11.60;99.90;12.30;101816.00;;;;5090298;28;20312;-71
2022/09/19 04:43:25;;;;;;;0.90;0.90;;;11.60;99.90;12.30;101808.00;;;;5075153;28;20693;-72
2022/09/19 04:45:52;;;;;;;0.90;0.90;;;11.60;99.90;11.80;101801.00;;;;5090372;28;20184;-71
2022/09/19 04:48:25;;;;;;;1.27;1.27;;;11.40;99.90;12.10;101811.00;;;;5075095;28;20198;-72
2022/09/19 04:50:54;;;;;;;1.00;1.00;;;11.30;99.90;12.70;101826.00;;;;5089942;28;20201;-72
2022/09/19 04:53:27;;;;;;;0.80;0.80;;;11.60;99.90;11.70;101814.00;;;;5090284;28;20352;-71
2022/09/19 04:55:54;;;;;;;0.60;0.60;;;11.30;99.90;10.90;101821.00;;;;5073500;28;20191;-71
2022/09/19 04:58:21;;;;;;;1.30;1.30;;;11.10;99.90;11.70;101827.00;;;;5090358;28;20216;-71
2022/09/19 05:00:57;;;;;;;0.80;0.80;;;11.10;99.90;12.20;101818.00;;;;5090214;28;20261;-71
2022/09/19 05:03:27;;;;;;;0.70;0.70;;;11.30;99.90;11.30;101818.00;;;;5075015;28;20179;-71
2022/09/19 05:05:54;;;;;;;0.60;0.60;;;11.20;99.90;11.30;101822.00;;;;5089350;28;20179;-72
2022/09/19 05:08:30;;;;;;;0.70;0.70;;;10.90;99.90;11.30;101819.00;;;;5090680;28;20629;-72
2022/09/19 05:10:59;;;;;;;0.80;0.80;;;11.10;99.90;11.80;101823.00;;;;5074067;28;20193;-72
2022/09/19 05:13:30;;;;;;;0.80;0.80;;;11.00;99.90;12.10;101823.00;;;;5090187;28;20550;-71
2022/09/19 05:15:58;;;;;;;0.70;0.70;;;11.40;99.90;11.80;101777.00;;;;5073003;28;20186;-71
2022/09/19 05:18:24;;;;;;;0.60;0.60;;;11.30;99.90;12.00;101823.00;;;;5074349;28;20181;-72
2022/09/19 05:20:52;;;;;;;0.70;0.70;;;11.30;99.90;12.10;101809.00;;;;5089450;28;20228;-71
2022/09/19 05:23:24;;;;;;;0.97;0.97;;;11.40;99.90;12.70;101843.00;;;;5090003;28;20536;-72
2022/09/19 05:25:54;;;;;;;0.60;0.60;;;11.70;99.90;11.80;101837.00;;;;5089986;28;20263;-71
2022/09/19 05:28:26;;;;;;;0.87;0.87;;;11.60;99.90;12.50;101834.00;;;;5089735;28;20622;-71
2022/09/19 05:30:55;;;;;;;0.80;0.80;;;11.70;99.90;12.00;101838.00;;;;5088995;28;20160;-71
2022/09/19 05:33:28;;;;;;;0.80;0.80;;;11.60;99.90;12.30;101834.00;;;;5089243;28;20744;-71
2022/09/19 05:36:05;;;;;;;0.90;0.90;;;11.60;99.90;12.50;101839.00;;;;5089289;28;20611;-72
2022/09/19 05:38:32;;;;;;;0.90;0.90;;;11.70;99.90;12.40;101843.00;;;;5089533;28;20182;-71
2022/09/19 05:41:03;;;;;;;0.97;0.97;;;11.80;99.90;12.50;101844.00;;;;5073337;28;20206;-71
2022/09/19 05:43:35;;;;;;;0.90;0.90;;;11.70;99.90;12.80;101843.00;;;;5089362;28;20186;-72
2022/09/19 05:46:04;;;;;;;1.13;1.13;;;11.80;99.90;13.00;101841.00;;;;5089649;28;20620;-71
2022/09/19 05:48:37;;;;;;;1.10;1.10;;;12.00;99.90;12.40;101804.00;;;;5089503;28;20238;-71
2022/09/19 05:51:04;;;;;;;1.00;1.00;;;11.90;99.90;13.10;101842.00;;;;5089019;28;20178;-72
2022/09/19 05:56:34;;;;;;;1.20;1.20;;;12.50;99.90;13.50;101847.00;;;;5062696;28;20186;-72
2022/09/19 05:59:00;;;;;;;1.20;1.20;;;12.60;99.90;13.20;101847.00;;;;5051277;28;20637;-71
2022/09/19 06:01:26;;;;;;;1.20;1.20;;;12.50;99.90;12.80;101851.00;;;;5061117;28;20213;-71
2022/09/19 06:03:55;;;;;;;1.23;1.23;;;12.30;99.90;13.00;101853.00;;;;5073070;28;20715;-71
2022/09/19 06:06:23;;;;;;;1.30;1.30;;;12.20;99.90;13.40;101856.00;;;;5073521;28;20192;-71
2022/09/19 06:08:57;;;;;;;1.33;1.33;;;12.30;99.90;13.20;101861.00;;;;5089111;28;20629;-71
2022/09/19 06:11:25;;;;;;;1.20;1.20;;;12.50;99.90;12.90;101855.00;;;;5089090;28;20193;-71
2022/09/19 06:14:14;;;;;;;1.40;1.40;;;12.30;99.90;13.00;101861.00;;;;5088982;28;20178;-72
2022/09/19 06:16:42;;;;;;;0.80;0.80;;;12.40;99.90;12.60;101863.00;;;;5073359;28;20291;-71
2022/09/19 06:19:09;;;;;;;0.63;0.63;;;12.20;99.90;12.20;101859.00;;;;5088873;28;20200;-71
2022/09/19 06:21:40;;;;;;;1.60;1.53;;;12.00;99.90;11.90;101861.00;;;;5073346;28;20651;-71
2022/09/19 06:24:09;;;;;;;0.57;0.57;;;11.80;99.90;12.50;101872.00;;;;5088817;28;20631;-71
2022/09/19 06:26:38;;;;;;;2.73;0.90;;;11.90;99.90;13.00;101882.00;;;;5089067;28;20270;-71
2022/09/19 06:29:12;;;;;;;0.60;0.60;;;12.10;99.90;12.80;101827.00;;;;5088814;28;20174;-71
2022/09/19 06:31:40;;;;;;;0.73;0.73;;;12.40;99.90;13.10;101889.00;;;;5088156;28;20205;-71
2022/09/19 06:34:06;;;;;;;0.60;0.60;;;12.50;99.90;12.90;101900.00;;;;5088608;28;20508;-71
2022/09/19 06:36:32;;;;;;;0.50;0.50;;;12.50;99.90;12.50;101879.00;;;;5088964;28;20189;-71
2022/09/19 06:38:58;;;;;;;0.50;0.50;;;12.40;99.90;13.50;101899.00;;;;5073255;28;20255;-71
2022/09/19 06:41:27;;;;;;;0.60;0.60;;;12.50;99.90;13.20;101900.00;;;;5073270;28;20170;-71
2022/09/19 06:43:53;;;;;;;0.47;0.47;;;12.50;99.90;13.70;101902.00;;;;5072832;28;20186;-71
2022/09/19 06:46:19;;;;;;;0.83;0.83;;;12.80;99.90;13.40;101910.00;;;;5073479;28;20246;-71
2022/09/19 06:48:53;;;;;;;0.80;0.80;;;12.90;99.90;13.50;101907.00;;;;5088415;28;20613;-70
2022/09/19 06:51:19;;;;;;;1.07;1.07;;;13.10;99.90;14.60;101911.00;;;;5089066;28;20185;-71
2022/09/19 06:53:50;;;;;;;0.30;0.30;;;13.60;99.90;13.90;101864.00;;;;5074522;28;20189;-71
2022/09/19 06:56:16;;;;;;;0.40;0.40;;;13.40;99.90;15.30;101930.00;;;;5092909;28;20185;-72
2022/09/19 06:58:47;;;;;;;0.50;0.50;;;13.90;99.90;15.70;101904.00;;;;5076826;28;20177;-71
2022/09/19 07:01:18;;;;;;;5.13;1.63;;;14.40;99.90;15.50;101956.00;;;;5092747;28;20217;-72
2022/09/19 07:03:49;;;;;;;1.27;1.27;;;14.40;99.90;14.40;101935.00;;;;5076870;28;20173;-72
2022/09/19 07:06:21;;;;;;;0.50;0.50;;;13.80;99.90;14.70;101938.00;;;;5092643;28;20513;-71
2022/09/19 07:08:55;;;;;;;0.83;0.83;;;13.70;99.90;14.50;101943.00;;;;5092396;28;20181;-72
2022/09/19 07:11:24;;;;;;;0.60;0.60;;;13.60;99.90;14.70;101946.00;;;;5076693;28;20171;-72
2022/09/19 07:13:55;;;;;;;1.47;1.47;;;13.60;99.90;14.50;101935.00;;;;5076805;28;20183;-72
2022/09/19 07:16:24;;;;;;;1.37;1.37;;;13.50;99.90;14.60;101948.00;;;;5092421;28;20194;-72
2022/09/19 07:18:50;;;;;;;0.70;0.70;;;13.60;99.90;14.90;101947.00;;;;5092230;28;20188;-72
2022/09/19 07:21:22;;;;;;;0.90;0.90;;;13.80;99.90;15.30;101951.00;;;;5092364;28;20175;-72
2022/09/19 07:23:54;;;;;;;3.87;2.60;;;14.00;99.90;15.20;101906.00;;;;5092263;28;20268;-71
2022/09/19 07:26:34;;;;;;;1.00;1.00;;;14.20;99.90;14.30;101951.00;;;;5076867;28;20168;-71
2022/09/19 07:29:00;;;;;;;7.37;1.47;;;13.80;99.90;14.70;101960.00;;;;5075303;28;20195;-71
2022/09/19 07:31:30;;;;;;;0.80;0.80;;;13.90;99.90;15.30;101955.00;;;;5092336;28;20188;-71
2022/09/19 07:33:55;;;;;;;0.80;0.80;;;14.10;99.90;15.50;101968.00;;;;5092808;28;20206;-72
2022/09/19 07:36:27;;;;;;;0.90;0.90;;;14.20;99.90;15.30;101966.00;;;;5076337;28;20629;-72
2022/09/19 07:38:52;;;;;;;3.03;2.87;;;14.40;99.90;14.10;101914.00;;;;5076451;28;20523;-71
2022/09/19 07:41:18;;;;;;;0.60;0.60;;;13.80;99.90;14.10;101951.00;;;;5092124;28;20181;-71
2022/09/19 07:43:49;;;;;;;0.60;0.60;;;13.50;99.90;14.50;101964.00;;;;5091745;28;20206;-71
2022/09/19 07:46:20;;;;;;;0.50;0.50;;;13.70;99.90;14.50;101959.00;;;;5091572;28;20260;-72
2022/09/19 07:48:54;;;;;;;0.60;0.60;;;13.80;99.90;15.60;101968.00;;;;5075949;28;20186;-72
2022/09/19 07:51:20;;;;;;;0.60;0.60;;;14.20;99.90;16.30;101973.00;;;;5092102;28;20186;-72
2022/09/19 07:53:46;;;;;;;0.60;0.60;;;14.70;99.90;16.50;101978.00;;;;5091765;28;20216;-71
2022/09/19 07:56:14;;;;;;;0.60;0.60;;;15.00;99.90;16.30;101978.00;;;;5091637;28;20599;-72
2022/09/19 07:58:40;;;;;;;0.70;0.70;;;15.20;99.90;16.80;101995.00;;;;5091235;28;20185;-72
2022/09/19 08:01:10;;;;;;;0.60;0.60;;;15.50;99.90;16.40;101994.00;;;;5075397;28;20174;-71
2022/09/19 08:03:36;;;;;;;0.60;0.60;;;15.30;99.90;17.30;102005.00;;;;5076256;28;20183;-72
2022/09/19 08:06:02;;;;;;;0.60;0.60;;;15.70;99.90;17.70;102017.00;;;;5090918;28;20179;-71
2022/09/19 08:08:28;;;;;;;0.60;0.60;;;16.10;99.90;18.00;102024.00;;;;5091482;28;20698;-71
2022/09/19 08:11:00;;;;;;;0.70;0.70;;;16.30;99.90;17.90;102014.00;;;;5091293;28;20172;-71
2022/09/19 08:13:27;;;;;;;0.70;0.70;;;16.50;99.90;17.70;102046.00;;;;5091046;28;20217;-71
2022/09/19 08:15:53;;;;;;;0.60;0.60;;;16.40;99.90;17.90;102039.00;;;;5075237;28;20175;-71
2022/09/19 08:18:23;;;;;;;0.60;0.60;;;16.40;99.90;16.90;101968.00;;;;5075804;28;20179;-71
2022/09/19 08:20:48;;;;;;;0.50;0.50;;;16.00;99.90;16.20;101968.00;;;;5090900;28;20180;-71
2022/09/19 08:23:18;;;;;;;0.70;0.70;;;15.40;99.90;16.10;102005.00;;;;5075731;28;20540;-71
2022/09/19 08:25:51;;;;;;;0.53;0.53;;;15.20;99.90;16.20;102015.00;;;;5091138;28;20175;-71
2022/09/19 08:28:19;;;;;;;0.50;0.50;;;15.30;99.90;16.90;102020.00;;;;5091273;28;20221;-71
2022/09/19 08:30:47;;;;;;;0.50;0.50;;;15.60;99.90;17.70;101989.00;;;;5090512;28;20291;-71
2022/09/19 08:33:13;;;;;;;0.50;0.50;;;15.90;99.90;17.90;102040.00;;;;5075484;28;20210;-71
2022/09/19 08:35:41;;;;;;;0.50;0.50;;;16.30;99.90;18.50;102050.00;;;;5075263;28;20260;-71
2022/09/19 08:38:13;;;;;;;0.60;0.60;;;16.70;99.90;19.20;102066.00;;;;5075120;28;20182;-71
2022/09/19 08:40:45;;;;;;;0.60;0.60;;;17.20;99.90;19.70;102076.00;;;;5090442;28;20635;-71
2022/09/19 08:43:51;;;;;;;0.30;0.30;;;17.70;99.90;17.80;102078.00;;;;5075085;28;20576;-70
2022/09/19 08:47:02;;;;;;;0.70;0.70;;;17.20;99.90;17.40;102062.00;;;;5075081;28;20634;-71
2022/09/19 08:49:44;;;;;;;0.30;0.30;;;16.70;99.90;17.30;102053.00;;;;5090603;28;20182;-71
2022/09/19 08:52:26;;;;;;;0.40;0.40;;;16.30;99.90;17.90;102050.00;;;;5090352;28;20206;-71
2022/09/19 08:54:54;;;;;;;1.30;0.93;;;16.50;99.90;16.90;102046.00;;;;5090469;28;20218;-71
2022/09/19 08:57:30;;;;;;;0.40;0.40;;;16.00;99.90;17.10;102051.00;;;;5090338;28;20212;-71
2022/09/19 09:00:05;;;;;;;0.57;0.57;;;16.10;99.90;16.70;102023.00;;;;5090177;28;20174;-71
2022/09/19 09:02:52;;;;;;;0.23;0.23;;;15.90;99.90;16.00;102034.00;;;;5090459;28;20278;-71
2022/09/19 09:05:31;;;;;;;0.40;0.40;;;15.60;99.90;16.90;102043.00;;;;5074804;28;20179;-71
2022/09/19 09:08:16;;;;;;;0.50;0.50;;;16.00;99.90;17.00;101997.00;;;;5090219;28;20636;-70
2022/09/19 09:11:05;;;;;;;0.20;0.20;;;16.10;99.90;16.60;102024.00;;;;5090073;28;20157;-70
2022/09/19 09:15:08;;;;;;;0.27;0.27;;;16.20;99.90;16.40;102042.00;;;;5089543;28;20607;-71
2022/09/19 09:17:50;;;;;;;4.13;1.53;;;16.20;99.90;17.90;102057.00;;;;4977945;28;20222;-71
2022/09/19 09:20:36;;;;;;;0.60;0.60;;;16.70;99.90;17.50;102063.00;;;;5012421;28;20233;-71
2022/09/19 09:23:15;;;;;;;0.20;0.20;;;17.00;99.90;17.80;102054.00;;;;5079519;28;20660;-71
2022/09/19 09:25:49;;;;;;;2.17;0.60;;;17.10;99.90;17.10;102060.00;;;;5089582;28;20206;-71
2022/09/19 09:28:28;;;;;;;0.87;0.87;;;17.10;99.90;18.80;102079.00;;;;5089535;28;20184;-71
2022/09/19 09:31:26;;;;;;;0.20;0.20;;;17.60;99.90;19.40;102090.00;;;;5089693;28;20184;-71
2022/09/19 09:34:07;;;;;;;0.23;0.23;;;18.10;99.90;17.20;102066.00;;;;5072612;28;20282;-72
2022/09/19 09:36:45;;;;;;;0.20;0.20;;;17.20;99.90;18.60;102056.00;;;;5089395;28;20178;-70
2022/09/19 09:39:22;;;;;;;2.37;1.37;;;17.30;99.90;18.10;102074.00;;;;5089247;28;20179;-71
2022/09/19 09:41:56;;;;;;;1.30;0.53;;;17.50;99.90;17.70;102075.00;;;;5089352;28;20187;-70
2022/09/19 09:44:43;;;;;;;0.50;0.50;;;17.30;99.90;18.20;102074.00;;;;5089244;28;20607;-72
2022/09/19 09:47:48;;;;;;;0.30;0.30;;;17.30;99.90;18.70;102078.00;;;;5089360;28;20182;-71
2022/09/19 09:50:28;;;;;;;0.20;0.20;;;17.30;99.90;18.40;102080.00;;;;5064745;28;20208;-72
2022/09/19 09:53:23;;;;;;;0.20;0.20;;;17.50;99.90;18.00;102072.00;;;;5089047;28;20212;-72
2022/09/19 09:56:44;;;;;;;6.10;5.80;;;17.30;99.90;17.90;102076.00;;;;5073488;28;20524;-72
2022/09/19 10:06:04;;;;;;;0.30;0.30;;;16.80;99.90;17.00;102060.00;;;;5073319;28;20599;-71
2022/09/19 10:09:13;;;;;;;0.40;0.40;;;16.60;99.90;17.20;102060.00;;;;5089229;28;20219;-72
2022/09/19 10:12:15;;;;;;;1.13;0.97;;;16.60;99.90;17.50;102081.00;;;;5089105;28;20233;-72
2022/09/19 10:14:42;;;;;;;0.20;0.20;;;17.00;99.90;17.90;102088.00;;;;5089125;28;20629;-72
2022/09/19 10:17:11;;;;;;;6.60;0.40;;;16.80;99.90;17.80;102096.00;;;;5089121;28;20181;-72
2022/09/19 10:19:41;;;;;;;0.70;0.40;;;17.00;99.90;17.10;102096.00;;;;5089236;28;20210;-70
2022/09/19 10:33:44;;;;;;;0.40;0.40;;;15.60;99.90;16.30;102067.00;;;;5070684;28;20549;-71
2022/09/19 10:36:34;;;;;;;2.70;1.07;;;15.70;99.90;16.30;102061.00;;;;5049349;28;20540;-71
2022/09/19 10:39:12;;;;;;;1.37;1.20;;;15.80;99.90;16.40;102064.00;;;;5033223;28;20653;-71
2022/09/19 10:41:42;;;;;;;0.60;0.60;;;15.80;99.90;16.60;102070.00;;;;5049332;28;20207;-71
2022/09/19 10:44:29;;;;;;;4.17;2.57;;;15.90;99.90;17.10;102058.00;;;;5049306;28;20176;-71
2022/09/19 10:47:03;;;;;;;0.30;0.30;;;16.10;99.90;18.10;102066.00;;;;5048941;28;20249;-70
2022/09/19 10:49:45;;;;;;;0.80;0.80;;;16.70;99.90;18.70;102101.00;;;;5049042;28;20181;-71
2022/09/19 10:52:20;;;;;;;0.30;0.30;;;17.20;99.90;19.10;102122.00;;;;5049123;28;20294;-71
2022/09/19 10:54:47;;;;;;;0.23;0.23;;;17.90;99.90;18.50;102125.00;;;;5049023;28;20185;-71
2022/09/19 10:57:45;;;;;;;0.27;0.27;;;17.70;99.90;19.50;102129.00;;;;5049219;28;20232;-70
2022/09/19 11:00:51;;;;;;;0.20;0.20;;;17.90;99.90;21.10;102150.00;;;;5032211;28;20238;-71
2022/09/19 11:03:23;;;;;;;0.30;0.30;;;19.20;99.90;19.50;102139.00;;;;5048736;28;20202;-71
2022/09/19 11:06:16;;;;;;;0.20;0.20;;;18.90;99.90;19.50;102148.00;;;;5050109;28;20185;-70
2022/09/19 11:08:49;;;;;;;0.20;0.20;;;18.80;99.90;20.00;102144.00;;;;5031703;28;20180;-71
2022/09/19 11:11:46;;;;;;;5.68;1.50;;;18.70;99.90;20.90;102161.00;;;;5048757;28;20670;-71
2022/09/19 11:14:31;;;;;;;0.20;0.20;;;19.60;99.90;20.90;102161.00;;;;5032453;28;20179;-71
2022/09/19 11:17:12;;;;;;;0.10;0.10;;;19.80;99.90;20.90;102116.00;;;;5048578;28;20181;-69
2022/09/19 11:20:29;;;;;;;0.20;0.20;;;19.70;99.90;21.00;102158.00;;;;5050119;28;20235;-71
2022/09/19 11:23:28;;;;;;;0.20;0.20;;;19.60;99.90;21.00;102121.00;;;;5049484;28;20244;-71
2022/09/19 11:26:19;;;;;;;0.20;0.20;;;19.50;99.90;20.70;102163.00;;;;5049608;28;20218;-71
2022/09/19 11:29:25;;;;;;;0.20;0.20;;;19.40;99.90;20.60;102126.00;;;;5048410;28;20188;-71
2022/09/19 11:32:28;;;;;;;0.20;0.20;;;19.20;99.90;20.30;102171.00;;;;5049538;28;20221;-71
2022/09/19 11:35:28;;;;;;;2.40;0.70;;;19.00;99.90;19.10;102165.00;;;;5048227;28;20193;-71
2022/09/19 11:38:23;;;;;;;0.20;0.20;;;18.50;99.90;19.40;102156.00;;;;5048068;28;20645;-71
2022/09/19 11:41:32;;;;;;;0.40;0.40;;;18.30;99.90;19.60;102143.00;;;;5049440;28;20175;-71
2022/09/19 11:44:41;;;;;;;0.20;0.20;;;18.40;99.90;19.70;102151.00;;;;5039209;28;20200;-71
2022/09/19 11:47:50;;;;;;;0.20;0.20;;;18.50;99.90;20.30;102164.00;;;;5035954;28;20176;-71
2022/09/19 11:50:48;;;;;;;0.20;0.20;;;18.70;99.90;20.50;102164.00;;;;5034849;28;20192;-71